McColl, Texas
Current Conditions -  °F | °C
As of 1:53 AM on Monday 24 Nov 2014 (Local Time) from KMFE Reporting Station
Haze Haze  
Wind Chill: 58°   Ceiling: Unl
Heat Index: 58°   Visibility: 5mi
Dew Point: 57°   Wind: 5mph
Humidity: 97%   Direction: 110°ESE
Pressure: 29.77"   Gusts: NA
Location:  26.2031°N, 98.2299°W
Report Text: KMFE 240753Z AUTO 11004KT 5SM BR CLR 14/14 A2977 RMK AO2 SLP078 T01440139
Loading
Personal Weather Stations






























Interactive Weather Map New forecast layout! Learn more

10-Day Weather Forecast

Advertisements
Track Severe Weather on mobile